createdAt,value
2022-07-26T00:00:14.140Z,23.08
2022-07-26T00:03:35.675Z,23.07
2022-07-26T00:06:38.055Z,23.05
2022-07-26T00:09:40.506Z,23.03
2022-07-26T00:12:44.320Z,23.01
2022-07-26T00:15:47.173Z,22.99
2022-07-26T00:18:48.713Z,22.98
2022-07-26T00:22:10.251Z,22.97
2022-07-26T00:25:11.812Z,22.95
2022-07-26T00:28:13.445Z,22.95
2022-07-26T00:31:15.083Z,22.93
2022-07-26T00:34:16.729Z,22.93
2022-07-26T00:37:20.627Z,22.93
2022-07-26T00:40:22.428Z,22.93
2022-07-26T00:43:24.289Z,22.92
2022-07-26T00:46:26.105Z,22.93
2022-07-26T00:49:27.818Z,22.95
2022-07-26T00:52:29.612Z,22.97
2022-07-26T00:55:31.446Z,22.95
2022-07-26T00:58:33.205Z,22.97
2022-07-26T01:01:34.851Z,23.01
2022-07-26T01:04:36.680Z,23.02
2022-07-26T01:07:38.954Z,23.03
2022-07-26T01:10:43.123Z,23.05
2022-07-26T01:13:49.756Z,23.07
2022-07-26T01:16:52.643Z,23.08
2022-07-26T01:19:54.304Z,23.07
2022-07-26T01:22:55.872Z,23.08
2022-07-26T01:25:57.442Z,23.07
2022-07-26T01:28:59.292Z,23.05
2022-07-26T01:32:03.343Z,23.03
2022-07-26T01:35:05.413Z,23.00
2022-07-26T01:38:07.044Z,22.99
2022-07-26T01:41:09.322Z,22.95
2022-07-26T01:44:11.203Z,22.91
2022-07-26T01:47:13.000Z,22.89
2022-07-26T01:50:14.696Z,22.87
2022-07-26T01:53:16.260Z,22.84
2022-07-26T01:56:17.772Z,22.81
2022-07-26T01:59:19.341Z,22.77
2022-07-26T02:02:20.896Z,22.74
2022-07-26T02:05:22.566Z,22.73
2022-07-26T02:08:24.153Z,22.71
2022-07-26T02:11:25.852Z,22.67
2022-07-26T02:14:28.143Z,22.64
2022-07-26T02:17:29.802Z,22.60
2022-07-26T02:20:32.674Z,22.58
2022-07-26T02:23:35.238Z,22.55
2022-07-26T02:26:42.281Z,22.52
2022-07-26T02:29:43.934Z,22.51
2022-07-26T02:32:45.480Z,22.49
2022-07-26T02:35:47.666Z,22.49
2022-07-26T02:38:49.205Z,22.47
2022-07-26T02:41:50.705Z,22.47
2022-07-26T02:44:53.459Z,22.47
2022-07-26T02:47:55.983Z,22.45
2022-07-26T02:50:57.623Z,22.43
2022-07-26T02:53:59.254Z,22.42
2022-07-26T02:57:00.839Z,22.41
2022-07-26T03:00:03.962Z,22.39
2022-07-26T03:03:05.567Z,22.37
2022-07-26T03:06:07.213Z,22.35
2022-07-26T03:09:08.735Z,22.33
2022-07-26T03:12:10.265Z,22.32
2022-07-26T03:15:12.109Z,22.30
2022-07-26T03:18:13.697Z,22.29
2022-07-26T03:21:15.198Z,22.28
2022-07-26T03:24:16.742Z,22.28
2022-07-26T03:27:18.242Z,22.27
2022-07-26T03:30:24.881Z,22.25
2022-07-26T03:33:29.735Z,22.23
2022-07-26T03:36:31.554Z,22.25
2022-07-26T03:39:33.142Z,22.25
2022-07-26T03:42:36.040Z,22.25
2022-07-26T03:45:37.604Z,22.27
2022-07-26T03:48:39.207Z,22.28
2022-07-26T03:51:40.801Z,22.29
2022-07-26T03:54:42.343Z,22.30
2022-07-26T03:57:43.911Z,22.32
2022-07-26T04:00:46.026Z,22.35
2022-07-26T04:03:47.957Z,22.36
2022-07-26T04:06:49.639Z,22.37
2022-07-26T04:09:52.116Z,22.41
2022-07-26T04:12:53.685Z,22.43
2022-07-26T04:15:55.541Z,22.47
2022-07-26T04:18:57.378Z,22.51
2022-07-26T04:21:58.902Z,22.56
2022-07-26T04:25:00.413Z,22.61
2022-07-26T04:28:02.493Z,22.66
2022-07-26T04:31:03.949Z,22.70
2022-07-26T04:34:05.834Z,22.73
2022-07-26T04:37:07.416Z,22.79
2022-07-26T04:40:10.442Z,22.83
2022-07-26T04:43:15.609Z,22.89
2022-07-26T04:46:18.735Z,22.95
2022-07-26T04:49:20.285Z,23.00
2022-07-26T04:52:21.809Z,23.04
2022-07-26T04:55:23.684Z,23.08
2022-07-26T04:58:25.590Z,23.12
2022-07-26T05:01:27.225Z,23.14
2022-07-26T05:04:28.804Z,23.21
2022-07-26T05:07:48.127Z,23.25
2022-07-26T05:10:55.250Z,23.29
2022-07-26T05:13:57.179Z,23.35
2022-07-26T05:16:58.796Z,23.41
2022-07-26T05:20:14.201Z,23.48
2022-07-26T05:23:16.184Z,23.57
2022-07-26T05:26:17.696Z,23.66
2022-07-26T05:29:19.192Z,23.73
2022-07-26T05:32:21.901Z,23.85
2022-07-26T05:35:23.762Z,23.93
2022-07-26T05:38:25.370Z,24.03
2022-07-26T05:41:26.920Z,24.11
2022-07-26T05:44:28.438Z,24.19
2022-07-26T05:47:32.176Z,24.25
2022-07-26T05:50:33.693Z,24.34
2022-07-26T05:53:35.974Z,24.40
2022-07-26T05:56:37.756Z,24.43
2022-07-26T05:59:39.324Z,24.48
2022-07-26T06:02:41.544Z,24.50
2022-07-26T06:05:43.149Z,24.52
2022-07-26T06:08:45.433Z,24.55
2022-07-26T06:11:46.992Z,24.58
2022-07-26T06:14:48.570Z,24.62
2022-07-26T06:17:50.168Z,24.65
2022-07-26T06:20:51.874Z,24.69
2022-07-26T06:23:53.515Z,24.71
2022-07-26T06:27:04.486Z,24.75
2022-07-26T06:30:07.753Z,24.82
2022-07-26T06:33:09.527Z,24.87
2022-07-26T06:36:11.413Z,24.93
2022-07-26T06:39:13.058Z,24.99
2022-07-26T06:42:14.731Z,24.96
2022-07-26T06:45:16.387Z,24.90
2022-07-26T06:48:18.076Z,24.82
2022-07-26T06:51:19.605Z,24.72
2022-07-26T06:54:21.247Z,24.61
2022-07-26T06:57:22.923Z,24.49
2022-07-26T07:00:24.563Z,24.36
2022-07-26T07:03:26.568Z,24.25
2022-07-26T07:06:28.084Z,24.17
2022-07-26T07:09:29.660Z,24.09
2022-07-26T07:12:31.533Z,24.00
2022-07-26T07:15:33.376Z,23.95
2022-07-26T07:18:35.239Z,23.87
2022-07-26T07:21:36.880Z,23.79
2022-07-26T07:24:39.145Z,23.69
2022-07-26T07:27:40.893Z,23.59
2022-07-26T07:30:42.544Z,23.49
2022-07-26T07:33:53.402Z,23.38
2022-07-26T07:36:55.434Z,23.31
2022-07-26T07:39:59.460Z,23.24
2022-07-26T07:43:01.411Z,23.17
2022-07-26T07:46:03.072Z,23.08
2022-07-26T07:49:06.531Z,23.00
2022-07-26T07:52:08.452Z,22.93
2022-07-26T07:58:32.234Z,22.81
2022-07-26T08:01:39.430Z,22.77
2022-07-26T08:04:42.752Z,22.74
2022-07-26T08:07:44.387Z,22.70
2022-07-26T08:10:52.002Z,22.67
2022-07-26T08:13:54.075Z,22.64
2022-07-26T08:16:57.337Z,22.65
2022-07-26T08:20:00.627Z,22.64
2022-07-26T08:23:05.000Z,22.63
2022-07-26T08:26:07.081Z,22.63
2022-07-26T08:29:08.938Z,22.63
2022-07-26T08:32:10.664Z,22.62
2022-07-26T08:35:17.327Z,22.63
2022-07-26T08:38:20.939Z,22.63
2022-07-26T08:41:22.703Z,22.63
2022-07-26T08:44:24.276Z,22.63
2022-07-26T08:47:37.682Z,22.64
2022-07-26T08:50:44.918Z,22.64
2022-07-26T08:53:49.595Z,22.64
2022-07-26T08:56:52.794Z,22.62
2022-07-26T09:00:14.098Z,22.59
2022-07-26T09:03:37.211Z,22.57
2022-07-26T09:06:38.824Z,22.56
2022-07-26T09:10:00.249Z,22.56
2022-07-26T09:13:01.823Z,22.55
2022-07-26T09:16:09.936Z,22.56
2022-07-26T09:19:22.000Z,22.57
2022-07-26T09:22:23.735Z,22.59
2022-07-26T09:25:26.833Z,22.62
2022-07-26T09:28:31.244Z,22.65
2022-07-26T09:31:33.742Z,22.66
2022-07-26T09:34:35.421Z,22.68
2022-07-26T09:37:39.682Z,22.68
2022-07-26T09:40:41.790Z,22.69
2022-07-26T09:43:51.563Z,22.70
2022-07-26T09:46:57.724Z,22.71
2022-07-26T09:50:13.416Z,22.71
2022-07-26T09:53:15.175Z,22.71
2022-07-26T09:56:18.542Z,22.70
2022-07-26T09:59:29.368Z,22.67
2022-07-26T10:02:32.383Z,22.64
2022-07-26T10:05:34.167Z,22.63
2022-07-26T10:08:36.250Z,22.62
2022-07-26T10:11:43.966Z,22.61
2022-07-26T10:14:51.133Z,22.63
2022-07-26T10:17:54.163Z,22.65
2022-07-26T10:20:55.889Z,22.66
2022-07-26T10:24:02.341Z,22.66
2022-07-26T10:27:05.573Z,22.63
2022-07-26T10:30:19.653Z,22.62
2022-07-26T10:33:24.098Z,22.58
2022-07-26T10:36:37.978Z,22.55
2022-07-26T10:39:39.612Z,22.51
2022-07-26T10:42:45.027Z,22.49
2022-07-26T10:45:46.952Z,22.46
2022-07-26T10:49:04.313Z,22.43
2022-07-26T10:52:06.005Z,22.39
2022-07-26T10:55:08.354Z,22.35
2022-07-26T10:58:13.696Z,22.33
2022-07-26T11:01:16.051Z,22.31
2022-07-26T11:04:20.327Z,22.29
2022-07-26T11:07:22.098Z,22.28
2022-07-26T11:10:35.902Z,22.26
2022-07-26T11:13:40.131Z,22.24
2022-07-26T11:16:48.180Z,22.20
2022-07-26T11:19:58.551Z,22.17
2022-07-26T11:23:00.814Z,22.16
2022-07-26T11:26:11.048Z,22.16
2022-07-26T11:29:25.253Z,22.17
2022-07-26T11:32:39.340Z,22.16
2022-07-26T11:35:49.871Z,22.15
2022-07-26T11:38:54.390Z,22.13
2022-07-26T11:41:59.089Z,22.14
2022-07-26T11:45:00.765Z,22.16
2022-07-26T11:48:04.299Z,22.18
2022-07-26T11:51:14.477Z,22.21
2022-07-26T11:54:17.179Z,22.25
2022-07-26T11:57:19.373Z,22.29
2022-07-26T12:00:24.455Z,22.31
2022-07-26T12:03:26.130Z,22.33
2022-07-26T12:06:28.512Z,22.41
2022-07-26T12:09:51.543Z,22.48
2022-07-26T12:13:14.415Z,22.57
2022-07-26T12:16:41.041Z,22.64
2022-07-26T12:19:46.515Z,22.67
2022-07-26T12:23:04.370Z,22.67
2022-07-26T12:26:26.443Z,22.70
2022-07-26T12:29:33.541Z,22.73
2022-07-26T12:32:38.597Z,22.76
2022-07-26T12:35:40.280Z,22.78
2022-07-26T12:38:43.469Z,22.81
2022-07-26T12:41:45.858Z,22.79
2022-07-26T12:44:47.424Z,22.76
2022-07-26T12:47:51.151Z,22.75
2022-07-26T12:50:56.989Z,22.74
2022-07-26T12:54:06.505Z,22.74
2022-07-26T12:57:22.898Z,22.73
2022-07-26T13:00:28.615Z,22.72
2022-07-26T13:03:31.418Z,22.73
2022-07-26T13:06:33.167Z,22.72
2022-07-26T13:09:34.893Z,22.73
2022-07-26T13:12:36.823Z,22.74
2022-07-26T13:15:38.537Z,22.74
2022-07-26T13:18:40.149Z,22.74
2022-07-26T13:21:42.085Z,22.74
2022-07-26T13:24:43.752Z,22.70
2022-07-26T13:27:45.799Z,22.66
2022-07-26T13:30:47.566Z,22.59
2022-07-26T13:33:49.245Z,22.53
2022-07-26T13:36:51.292Z,22.47
2022-07-26T13:39:52.864Z,22.41
2022-07-26T13:42:54.509Z,22.34
2022-07-26T13:45:57.143Z,22.30
2022-07-26T13:49:01.648Z,22.26
2022-07-26T13:52:04.096Z,22.24
2022-07-26T13:55:06.509Z,22.23
2022-07-26T13:58:10.314Z,22.22
2022-07-26T14:01:12.152Z,22.22
2022-07-26T14:04:15.516Z,22.24
2022-07-26T14:07:17.573Z,22.28
2022-07-26T14:10:20.508Z,22.32
2022-07-26T14:13:22.053Z,22.37
2022-07-26T14:16:26.947Z,22.39
2022-07-26T14:19:28.857Z,22.43
2022-07-26T14:22:30.530Z,22.45
2022-07-26T14:25:33.294Z,22.46
2022-07-26T14:28:34.978Z,22.48
2022-07-26T14:31:36.779Z,22.50
2022-07-26T14:34:38.292Z,22.48
2022-07-26T14:37:43.473Z,22.47
2022-07-26T14:40:46.982Z,22.45
2022-07-26T14:43:54.060Z,22.40
2022-07-26T14:46:57.381Z,22.36
2022-07-26T14:50:04.170Z,22.32
2022-07-26T14:53:10.732Z,22.31
2022-07-26T14:56:12.274Z,22.28
2022-07-26T14:59:14.350Z,22.24
2022-07-26T15:02:15.897Z,22.19
2022-07-26T15:05:18.514Z,22.16
2022-07-26T15:08:20.109Z,22.12
2022-07-26T15:11:21.729Z,22.13
2022-07-26T15:14:23.773Z,22.13
2022-07-26T15:17:25.363Z,22.13
2022-07-26T15:20:26.897Z,22.12
2022-07-26T15:23:28.897Z,22.12
2022-07-26T15:26:30.704Z,22.10
2022-07-26T15:29:32.381Z,22.12
2022-07-26T15:32:34.777Z,22.16
2022-07-26T15:35:36.540Z,22.20
2022-07-26T15:38:39.825Z,22.24
2022-07-26T15:41:43.104Z,22.31
2022-07-26T15:44:44.696Z,22.35
2022-07-26T15:47:59.072Z,22.37
2022-07-26T15:51:06.148Z,22.38
2022-07-26T15:54:13.222Z,22.38
2022-07-26T15:57:15.285Z,22.36
2022-07-26T16:00:17.285Z,22.34
2022-07-26T16:03:18.776Z,22.32
2022-07-26T16:06:20.882Z,22.28
2022-07-26T16:09:22.393Z,22.25
2022-07-26T16:12:23.910Z,22.22
2022-07-26T16:15:25.395Z,22.19
2022-07-26T16:18:26.900Z,22.17
2022-07-26T16:21:28.356Z,22.13
2022-07-26T16:24:30.297Z,22.10
2022-07-26T16:27:32.066Z,22.07
2022-07-26T16:30:36.378Z,22.06
2022-07-26T16:33:38.110Z,22.04
2022-07-26T16:36:47.928Z,22.03
2022-07-26T16:39:49.491Z,22.02
2022-07-26T16:42:51.114Z,22.02
2022-07-26T16:45:52.619Z,22.02
2022-07-26T16:48:54.166Z,22.02
2022-07-26T16:51:56.092Z,22.02
2022-07-26T16:54:57.564Z,22.02
2022-07-26T16:57:58.995Z,22.00
2022-07-26T17:01:01.385Z,22.02
2022-07-26T17:04:02.918Z,22.03
2022-07-26T17:10:26.401Z,22.04
2022-07-26T17:13:27.923Z,22.04
2022-07-26T17:16:29.561Z,22.04
2022-07-26T17:19:31.184Z,22.05
2022-07-26T17:22:32.656Z,22.05
2022-07-26T17:25:34.278Z,22.06
2022-07-26T17:28:35.975Z,22.05
2022-07-26T17:31:37.420Z,22.07
2022-07-26T17:34:38.847Z,22.07
2022-07-26T17:37:40.411Z,22.07
2022-07-26T17:40:42.728Z,22.06
2022-07-26T17:43:44.384Z,22.06
2022-07-26T17:46:46.244Z,22.05
2022-07-26T17:49:48.133Z,22.04
2022-07-26T17:52:50.279Z,22.02
2022-07-26T17:55:51.806Z,22.01
2022-07-26T17:58:53.675Z,21.98
2022-07-26T18:01:55.469Z,21.95
2022-07-26T18:04:56.955Z,21.91
2022-07-26T18:07:58.688Z,21.87
2022-07-26T18:11:02.198Z,21.84
2022-07-26T18:14:05.204Z,21.81
2022-07-26T18:17:06.704Z,21.79
2022-07-26T18:20:08.485Z,21.76
2022-07-26T18:23:09.954Z,21.72
2022-07-26T18:26:11.403Z,21.67
2022-07-26T18:29:14.603Z,21.63
2022-07-26T18:32:16.258Z,21.59
2022-07-26T18:35:17.764Z,21.56
2022-07-26T18:38:19.520Z,21.52
2022-07-26T18:41:20.990Z,21.47
2022-07-26T18:44:22.743Z,21.44
2022-07-26T18:47:24.345Z,21.40
2022-07-26T18:50:26.730Z,21.37
2022-07-26T18:53:32.717Z,21.33
2022-07-26T18:56:34.139Z,21.29
2022-07-26T18:59:35.799Z,21.25
2022-07-26T19:02:38.456Z,21.21
2022-07-26T19:05:41.202Z,21.18
2022-07-26T19:08:42.722Z,21.14
2022-07-26T19:11:47.123Z,21.10
2022-07-26T19:14:50.267Z,21.07
2022-07-26T19:17:51.853Z,21.03
2022-07-26T19:20:53.269Z,21.00
2022-07-26T19:23:55.102Z,20.96
2022-07-26T19:26:56.942Z,20.91
2022-07-26T19:30:00.037Z,20.89
2022-07-26T19:33:01.711Z,20.86
2022-07-26T19:36:03.685Z,20.85
2022-07-26T19:39:05.395Z,20.82
2022-07-26T19:42:07.606Z,20.80
2022-07-26T19:45:10.694Z,20.78
2022-07-26T19:48:12.227Z,20.79
2022-07-26T19:51:13.731Z,20.79
2022-07-26T19:54:15.693Z,20.78
2022-07-26T19:57:18.747Z,20.78
2022-07-26T20:00:20.365Z,20.77
2022-07-26T20:03:25.811Z,20.76
2022-07-26T20:06:27.634Z,20.75
2022-07-26T20:09:31.590Z,20.73
2022-07-26T20:12:33.793Z,20.73
2022-07-26T20:15:35.205Z,20.71
2022-07-26T20:18:36.781Z,20.70
2022-07-26T20:21:38.794Z,20.69
2022-07-26T20:24:44.538Z,20.66
2022-07-26T20:27:47.624Z,20.63
2022-07-26T20:30:51.303Z,20.61
2022-07-26T20:33:55.668Z,20.59
2022-07-26T20:36:57.834Z,20.58
2022-07-26T20:39:59.310Z,20.56
2022-07-26T20:43:02.386Z,20.54
2022-07-26T20:46:03.981Z,20.53
2022-07-26T20:49:09.719Z,20.51
2022-07-26T20:52:11.643Z,20.47
2022-07-26T20:55:14.487Z,20.44
2022-07-26T20:58:20.807Z,20.40
2022-07-26T21:01:23.073Z,20.37
2022-07-26T21:04:24.511Z,20.32
2022-07-26T21:07:55.735Z,20.28
2022-07-26T21:10:52.227Z,20.24
2022-07-26T21:13:55.516Z,20.21
2022-07-26T21:16:57.253Z,20.18
2022-07-26T21:20:02.616Z,20.15
2022-07-26T21:23:16.911Z,20.12
2022-07-26T21:26:19.424Z,20.08
2022-07-26T21:29:21.515Z,20.06
2022-07-26T21:32:26.064Z,20.04
2022-07-26T21:35:30.551Z,20.01
2022-07-26T21:38:32.584Z,19.98
2022-07-26T21:41:33.939Z,19.95
2022-07-26T21:44:35.380Z,19.93
2022-07-26T21:47:36.800Z,19.91
2022-07-26T21:50:38.155Z,19.89
2022-07-26T21:53:39.501Z,19.85
2022-07-26T21:56:40.963Z,19.82
2022-07-26T21:59:42.336Z,19.80
2022-07-26T22:02:43.799Z,19.79
2022-07-26T22:05:46.212Z,19.76
2022-07-26T22:08:50.249Z,19.74
2022-07-26T22:11:51.720Z,19.71
2022-07-26T22:14:53.090Z,19.68
2022-07-26T22:17:54.476Z,19.65
2022-07-26T22:20:55.846Z,19.63
2022-07-26T22:23:57.247Z,19.61
2022-07-26T22:26:58.617Z,19.59
2022-07-26T22:30:00.033Z,19.56
2022-07-26T22:33:02.526Z,19.53
2022-07-26T22:36:04.080Z,19.51
2022-07-26T22:39:05.480Z,19.49
2022-07-26T22:42:15.688Z,19.47
2022-07-26T22:45:17.440Z,19.44
2022-07-26T22:48:18.860Z,19.42
2022-07-26T22:51:20.252Z,19.39
2022-07-26T22:54:21.601Z,19.36
2022-07-26T22:57:22.970Z,19.33
2022-07-26T23:00:24.726Z,19.31
2022-07-26T23:03:26.148Z,19.29
2022-07-26T23:06:31.838Z,19.27
2022-07-26T23:09:33.751Z,19.25
2022-07-26T23:12:35.251Z,19.23
2022-07-26T23:15:36.637Z,19.21
2022-07-26T23:18:38.019Z,19.20
2022-07-26T23:21:39.438Z,19.18
2022-07-26T23:24:40.808Z,19.16
2022-07-26T23:27:45.891Z,19.14
2022-07-26T23:30:47.365Z,19.12
2022-07-26T23:33:53.369Z,19.10
2022-07-26T23:36:56.029Z,19.09
2022-07-26T23:39:57.492Z,19.07
2022-07-26T23:42:58.860Z,19.05
2022-07-26T23:46:00.244Z,19.03
2022-07-26T23:49:03.983Z,19.02
2022-07-26T23:52:05.459Z,18.99
2022-07-26T23:55:07.224Z,18.97
2022-07-26T23:58:11.944Z,18.96
